createdAt,value
2019-03-26T00:05:52.208Z,90.900002
2019-03-26T00:10:54.640Z,90.400002
2019-03-26T00:15:56.911Z,91.900002
2019-03-26T00:20:59.151Z,93.300003
2019-03-26T00:26:01.410Z,92.199997
2019-03-26T00:31:04.236Z,91.900002
2019-03-26T00:36:05.932Z,90.300003
2019-03-26T00:41:08.271Z,87.699997
2019-03-26T00:46:11.791Z,88.199997
2019-03-26T00:51:14.312Z,86.699997
2019-03-26T00:56:15.293Z,83.400002
2019-03-26T01:01:18.533Z,85.099998
2019-03-26T01:06:19.890Z,83.400002
2019-03-26T01:11:22.125Z,85.400002
2019-03-26T01:16:24.378Z,87.900002
2019-03-26T01:21:28.080Z,83.800003
2019-03-26T01:26:28.956Z,85.599998
2019-03-26T01:31:31.123Z,81.699997
2019-03-26T01:36:33.419Z,82.599998
2019-03-26T01:41:35.939Z,81.900002
2019-03-26T01:46:38.083Z,82
2019-03-26T01:51:40.340Z,81.300003
2019-03-26T01:56:42.689Z,80.199997
2019-03-26T02:01:44.906Z,79.699997
2019-03-26T02:06:48.554Z,74.400002
2019-03-26T02:11:49.546Z,74.400002
2019-03-26T02:16:51.795Z,77.099998
2019-03-26T02:26:56.360Z,77.699997
2019-03-26T02:37:02.625Z,75.900002
2019-03-26T02:42:03.357Z,74.5
2019-03-26T02:47:07.427Z,72.900002
2019-03-26T02:52:07.965Z,70.599998
2019-03-26T02:57:10.284Z,69.900002
2019-03-26T03:02:12.468Z,72.300003
2019-03-26T03:07:14.790Z,72.800003
2019-03-26T03:12:17.182Z,73.800003
2019-03-26T03:17:19.492Z,73.800003
2019-03-26T03:22:21.636Z,75.400002
2019-03-26T03:27:28.413Z,75.099998
2019-03-26T03:32:26.280Z,78
2019-03-26T03:37:28.998Z,79.400002
2019-03-26T03:42:30.869Z,82.300003
2019-03-26T03:47:33.143Z,84.099998
2019-03-26T03:52:37.161Z,84.300003
2019-03-26T04:06:32.599Z,84.400002
2019-03-26T04:11:34.861Z,83.800003
2019-03-26T04:16:37.237Z,84.800003
2019-03-26T04:21:39.504Z,85.400002
2019-03-26T04:26:41.736Z,84.699997
2019-03-26T04:31:44.082Z,84.699997
2019-03-26T04:36:46.308Z,87.400002
2019-03-26T04:41:48.939Z,87.099998
2019-03-26T04:46:50.943Z,86.300003
2019-03-26T04:51:53.209Z,86.5
2019-03-26T04:56:55.693Z,88.800003
2019-03-26T05:01:57.750Z,92.300003
2019-03-26T05:07:00.275Z,93.800003
2019-03-26T05:12:02.456Z,94.900002
2019-03-26T05:17:04.637Z,97.900002
2019-03-26T05:22:08.919Z,96.300003
2019-03-26T05:27:09.273Z,96.5
2019-03-26T05:32:11.592Z,97.900002
2019-03-26T05:37:13.939Z,97.300003
2019-03-26T05:42:16.098Z,97
2019-03-26T05:47:18.440Z,97.599998
2019-03-26T05:52:20.734Z,97.5
2019-03-26T05:57:23.178Z,96.599998
2019-03-26T06:02:25.511Z,96.599998
2019-03-26T06:07:27.721Z,97.099998
2019-03-26T06:12:30.005Z,98
2019-03-26T06:17:42.310Z,98.800003
2019-03-26T06:22:34.545Z,99
2019-03-26T06:27:36.829Z,99.900002
2019-03-26T06:32:39.124Z,99.900002
2019-03-26T06:37:41.517Z,99.900002
2019-03-26T06:42:43.822Z,99.900002
2019-03-26T06:47:45.940Z,99.900002
2019-03-26T06:52:49.818Z,99.900002
2019-03-26T06:57:50.606Z,99.900002
2019-03-26T07:02:52.804Z,97.800003
2019-03-26T07:07:55.216Z,98.800003
2019-03-26T07:12:57.499Z,99.199997
2019-03-26T07:17:59.986Z,97.900002
2019-03-26T07:23:02.087Z,98
2019-03-26T07:28:04.397Z,97.900002
2019-03-26T07:33:06.690Z,97.900002
2019-03-26T07:38:08.975Z,94.099998
2019-03-26T07:43:11.225Z,93.900002
2019-03-26T07:48:13.629Z,90.400002
2019-03-26T07:53:15.791Z,89.5
2019-03-26T07:58:18.104Z,91.400002
2019-03-26T08:03:21.248Z,92.199997
2019-03-26T08:08:22.734Z,90.900002
2019-03-26T08:13:25.069Z,91.300003
2019-03-26T08:18:27.311Z,87.5
2019-03-26T08:23:29.708Z,85.900002
2019-03-26T08:28:33.136Z,85.699997
2019-03-26T08:33:34.220Z,82.199997
2019-03-26T08:38:36.529Z,83.099998
2019-03-26T08:43:41.038Z,81.699997
2019-03-26T08:48:40.991Z,76.099998
2019-03-26T08:53:43.322Z,74.400002
2019-03-26T08:58:45.581Z,72.699997
2019-03-26T09:03:47.924Z,77.599998
2019-03-26T09:08:50.322Z,74.199997
2019-03-26T09:13:53.533Z,77.599998
2019-03-26T09:18:54.959Z,74.900002
2019-03-26T09:23:57.162Z,70.800003
2019-03-26T09:28:59.385Z,70.300003
2019-03-26T09:34:01.733Z,67.599998
2019-03-26T09:39:03.947Z,70.599998
2019-03-26T09:44:06.376Z,63.700001
2019-03-26T09:49:08.706Z,62.599998
2019-03-26T09:54:10.910Z,62.599998
2019-03-26T09:59:13.083Z,58.900002
2019-03-26T10:04:15.494Z,60.200001
2019-03-26T10:18:35.707Z,57.599998
2019-03-26T10:23:36.912Z,56.5
2019-03-26T10:28:39.246Z,58.599998
2019-03-26T10:33:41.732Z,62.700001
2019-03-26T10:38:43.902Z,63.700001
2019-03-26T10:43:46.096Z,66.099998
2019-03-26T10:48:48.412Z,58.099998
2019-03-26T11:02:33.039Z,57.900002
2019-03-26T11:07:33.165Z,57.299999
2019-03-26T11:12:33.621Z,54.700001
2019-03-26T11:17:35.859Z,54.299999
2019-03-26T11:22:38.311Z,45.900002
2019-03-26T11:27:40.618Z,52
2019-03-26T11:38:18.639Z,45.799999
2019-03-26T11:42:48.630Z,46
2019-03-26T11:47:49.746Z,43.599998
2019-03-26T11:52:52.048Z,46.200001
2019-03-26T11:57:57.448Z,47.299999
2019-03-26T12:04:34.473Z,44.099998
2019-03-26T12:07:58.907Z,47.5
2019-03-26T12:13:01.263Z,55.5
2019-03-26T12:18:03.501Z,48.200001
2019-03-26T12:23:05.896Z,46.599998
2019-03-26T12:28:08.040Z,47.5
2019-03-26T12:33:10.352Z,50.299999
2019-03-26T12:38:14.996Z,43.900002
2019-03-26T12:43:14.813Z,43.400002
2019-03-26T12:54:20.708Z,41.799999
2019-03-26T12:59:22.881Z,42.799999
2019-03-26T13:04:25.446Z,48.200001
2019-03-26T13:09:27.582Z,48.200001
2019-03-26T13:15:06.134Z,39.299999
2019-03-26T13:19:32.151Z,42.799999
2019-03-26T13:24:44.769Z,38.599998
2019-03-26T13:29:36.677Z,38.400002
2019-03-26T13:34:40.882Z,40.5
2019-03-26T13:39:41.316Z,41.799999
2019-03-26T13:44:43.531Z,37.200001
2019-03-26T13:49:45.937Z,37.299999
2019-03-26T13:54:48.158Z,39.700001
2019-03-26T13:59:50.486Z,40.099998
2019-03-26T14:04:52.713Z,39.700001
2019-03-26T14:09:55.165Z,41.400002
2019-03-26T14:14:57.339Z,40.599998
2019-03-26T14:19:59.626Z,41.900002
2019-03-26T14:25:02.019Z,44.400002
2019-03-26T14:30:04.203Z,43.900002
2019-03-26T14:35:06.525Z,45.299999
2019-03-26T14:40:08.918Z,44.299999
2019-03-26T14:45:11.251Z,49.400002
2019-03-26T14:50:13.516Z,44.299999
2019-03-26T14:55:15.732Z,43.599998
2019-03-26T15:00:18.000Z,47.5
2019-03-26T15:05:20.290Z,47.900002
2019-03-26T15:10:23.606Z,43.099998
2019-03-26T15:15:25.066Z,38
2019-03-26T15:20:27.332Z,37.700001
2019-03-26T15:25:29.442Z,35.299999
2019-03-26T15:47:38.385Z,40
2019-03-26T15:52:45.280Z,37.200001
2019-03-26T15:57:43.196Z,37.299999
2019-03-26T16:02:45.298Z,33.799999
2019-03-26T16:07:47.636Z,38.299999
2019-03-26T16:12:49.912Z,37.5
2019-03-26T16:17:52.220Z,39.599998
2019-03-26T16:22:54.430Z,37.599998
2019-03-26T16:27:56.790Z,38.5
2019-03-26T16:32:59.261Z,41.099998
2019-03-26T16:38:01.481Z,40
2019-03-26T16:48:06.010Z,40.400002
2019-03-26T16:53:08.206Z,40.799999
2019-03-26T16:58:10.662Z,44.099998
2019-03-26T17:03:12.851Z,45.099998
2019-03-26T17:08:15.126Z,47.900002
2019-03-26T17:13:17.354Z,48.099998
2019-03-26T17:18:19.732Z,49
2019-03-26T17:23:22.234Z,51.099998
2019-03-26T17:28:24.471Z,52.599998
2019-03-26T17:33:28.978Z,56.400002
2019-03-26T17:38:29.019Z,56.799999
2019-03-26T17:43:31.353Z,58.900002
2019-03-26T17:48:33.508Z,60.900002
2019-03-26T17:53:35.733Z,62.5
2019-03-26T17:58:38.036Z,64.099998
2019-03-26T18:03:41.331Z,66.5
2019-03-26T18:08:42.722Z,68.599998
2019-03-26T18:13:44.983Z,71
2019-03-26T18:18:47.370Z,71
2019-03-26T18:23:49.593Z,71.400002
2019-03-26T18:28:51.846Z,73
2019-03-26T18:33:56.461Z,74.5
2019-03-26T18:38:56.435Z,77.900002
2019-03-26T18:43:58.730Z,80.400002
